Time;durP1;ratioP1;P1;durP2;ratioP2;P2;SDS_P1;SDS_P2;PMS_P1;PMS_P2;Temp;Humidity;BMP_temperature;BMP_pressure;BME280_temperature;BME280_humidity;BME280_pressure;Samples;Min_cycle;Max_cycle;Signal;HPM_P1;HPM_P2
2023/08/08 00:01:18;;;;;;;;;;;15.10;99.90;;;;;;5034094;28;19925;-68
2023/08/08 00:03:46;;;;;;;;;;;15.10;99.90;;;;;;5033821;28;19921;-68
2023/08/08 00:06:14;;;;;;;;;;;15.10;99.90;;;;;;5034017;28;20384;-67
2023/08/08 00:08:42;;;;;;;;;;;15.10;99.90;;;;;;5033569;28;20411;-67
2023/08/08 00:11:09;;;;;;;;;;;15.10;99.90;;;;;;5033700;28;19921;-67
2023/08/08 00:13:37;;;;;;;;;;;15.10;99.90;;;;;;5024140;28;19925;-67
2023/08/08 00:16:05;;;;;;;;;;;15.00;99.90;;;;;;5015977;28;19921;-67
2023/08/08 00:18:35;;;;;;;;;;;15.00;99.90;;;;;;5033516;28;19925;-67
2023/08/08 00:21:03;;;;;;;;;;;15.00;99.90;;;;;;5033583;28;19952;-67
2023/08/08 00:23:31;;;;;;;;;;;15.00;99.90;;;;;;5033908;28;20323;-67
2023/08/08 00:25:59;;;;;;;;;;;15.00;99.90;;;;;;5033592;28;19932;-68
2023/08/08 00:28:26;;;;;;;;;;;14.90;99.90;;;;;;5033528;28;20300;-67
2023/08/08 00:30:54;;;;;;;;;;;14.90;99.90;;;;;;5033338;28;19925;-67
2023/08/08 00:33:22;;;;;;;;;;;14.90;99.90;;;;;;5033322;28;19924;-67
2023/08/08 00:35:51;;;;;;;;;;;14.90;99.90;;;;;;5033271;28;19928;-67
2023/08/08 00:38:19;;;;;;;;;;;14.90;99.90;;;;;;5033397;28;19921;-67
2023/08/08 00:40:47;;;;;;;;;;;14.90;99.90;;;;;;5033368;28;19921;-67
2023/08/08 00:43:15;;;;;;;;;;;15.00;99.90;;;;;;5026773;28;20454;-67
2023/08/08 00:45:43;;;;;;;;;;;14.90;99.90;;;;;;5013498;28;20350;-67
2023/08/08 00:48:11;;;;;;;;;;;14.90;99.90;;;;;;5032438;28;19921;-67
2023/08/08 00:50:39;;;;;;;;;;;14.90;99.90;;;;;;5033039;28;19931;-67
2023/08/08 00:53:08;;;;;;;;;;;14.90;99.90;;;;;;5032729;28;19921;-67
2023/08/08 00:55:36;;;;;;;;;;;14.80;99.90;;;;;;5033005;28;19921;-67
2023/08/08 00:58:04;;;;;;;;;;;14.80;99.90;;;;;;5032798;28;20303;-67
2023/08/08 01:00:32;;;;;;;;;;;14.80;99.90;;;;;;5032902;28;19921;-67
2023/08/08 01:03:00;;;;;;;;;;;14.80;99.90;;;;;;5032765;28;19948;-67
2023/08/08 01:05:31;;;;;;;;;;;14.80;99.90;;;;;;5033022;28;19928;-67
2023/08/08 01:08:02;;;;;;;;;;;14.80;99.90;;;;;;5032662;28;20291;-67
2023/08/08 01:10:33;;;;;;;;;;;14.80;99.90;;;;;;5032794;28;20020;-67
2023/08/08 01:13:05;;;;;;;;;;;14.80;99.90;;;;;;5029244;28;19930;-67
2023/08/08 01:15:35;;;;;;;;;;;14.80;99.90;;;;;;5018934;28;19944;-67
2023/08/08 01:18:04;;;;;;;;;;;14.80;99.90;;;;;;5030587;28;19972;-67
2023/08/08 01:20:33;;;;;;;;;;;14.80;99.90;;;;;;5032437;28;20024;-67
2023/08/08 01:23:11;;;;;;;;;;;14.80;99.90;;;;;;5032377;28;19921;-67
2023/08/08 01:25:41;;;;;;;;;;;14.80;99.90;;;;;;5032614;28;19925;-67
2023/08/08 01:28:09;;;;;;;;;;;14.80;99.90;;;;;;5032014;28;19950;-67
2023/08/08 01:30:56;;;;;;;;;;;14.80;99.90;;;;;;5032002;28;19925;-67
2023/08/08 01:33:24;;;;;;;;;;;14.80;99.90;;;;;;5032326;28;19971;-67
2023/08/08 01:35:55;;;;;;;;;;;14.80;99.90;;;;;;5032272;28;19921;-67
2023/08/08 01:38:27;;;;;;;;;;;14.80;99.90;;;;;;5032245;28;19925;-67
2023/08/08 01:40:57;;;;;;;;;;;14.80;99.90;;;;;;5032030;28;19925;-67
2023/08/08 01:43:25;;;;;;;;;;;14.80;99.90;;;;;;5024594;28;19968;-67
2023/08/08 01:45:53;;;;;;;;;;;14.70;99.90;;;;;;5012381;28;19929;-67
2023/08/08 01:48:21;;;;;;;;;;;14.70;99.90;;;;;;5015919;28;19927;-67
2023/08/08 01:50:48;;;;;;;;;;;14.70;99.90;;;;;;5031981;28;19921;-67
2023/08/08 01:53:16;;;;;;;;;;;14.60;99.90;;;;;;5031535;28;19936;-67
2023/08/08 01:55:44;;;;;;;;;;;14.50;99.90;;;;;;5031941;28;20304;-67
2023/08/08 01:58:13;;;;;;;;;;;14.50;99.90;;;;;;5031733;28;19921;-67
2023/08/08 02:00:43;;;;;;;;;;;14.50;99.90;;;;;;5031616;28;19933;-67
2023/08/08 02:03:11;;;;;;;;;;;14.40;99.90;;;;;;5031679;28;20399;-67
2023/08/08 02:05:39;;;;;;;;;;;14.30;99.90;;;;;;5031867;28;19921;-67
2023/08/08 02:08:07;;;;;;;;;;;14.30;99.90;;;;;;5031512;28;20031;-67
2023/08/08 02:10:35;;;;;;;;;;;14.30;99.90;;;;;;5031716;28;19921;-67
2023/08/08 02:13:03;;;;;;;;;;;14.20;99.90;;;;;;5026545;28;19921;-67
2023/08/08 02:15:32;;;;;;;;;;;14.10;99.90;;;;;;5011860;28;19928;-67
2023/08/08 02:18:00;;;;;;;;;;;14.10;99.90;;;;;;5028263;28;20399;-67
2023/08/08 02:20:28;;;;;;;;;;;14.00;99.90;;;;;;5031494;28;19928;-67
2023/08/08 02:22:56;;;;;;;;;;;13.90;99.90;;;;;;5031586;28;19991;-66
2023/08/08 02:25:23;;;;;;;;;;;13.90;99.90;;;;;;5031680;28;19921;-67
2023/08/08 02:27:51;;;;;;;;;;;13.90;99.90;;;;;;5031276;28;19921;-67
2023/08/08 02:30:19;;;;;;;;;;;13.90;99.90;;;;;;5031158;28;19955;-67
2023/08/08 02:32:48;;;;;;;;;;;13.90;99.90;;;;;;5031385;28;19929;-67
2023/08/08 02:35:16;;;;;;;;;;;13.80;99.90;;;;;;5031292;28;20471;-67
2023/08/08 02:37:44;;;;;;;;;;;13.80;99.90;;;;;;5031304;28;19920;-67
2023/08/08 02:40:12;;;;;;;;;;;13.80;99.90;;;;;;5034656;28;19921;-67
2023/08/08 02:42:39;;;;;;;;;;;13.70;99.90;;;;;;5036265;28;19921;-67
2023/08/08 02:45:08;;;;;;;;;;;13.60;99.90;;;;;;5017971;28;19925;-67
2023/08/08 02:47:35;;;;;;;;;;;13.60;99.90;;;;;;5031070;28;20438;-67
2023/08/08 02:50:05;;;;;;;;;;;13.60;99.90;;;;;;5037609;28;19921;-67
2023/08/08 02:52:33;;;;;;;;;;;13.60;99.90;;;;;;5037620;28;19940;-67
2023/08/08 02:55:02;;;;;;;;;;;13.50;99.90;;;;;;5037655;28;19921;-67
2023/08/08 02:57:29;;;;;;;;;;;13.50;99.90;;;;;;5037759;28;20391;-67
2023/08/08 02:59:57;;;;;;;;;;;13.50;99.90;;;;;;5037790;28;19928;-66
2023/08/08 03:02:25;;;;;;;;;;;13.50;99.90;;;;;;5037618;28;19920;-67
2023/08/08 03:05:00;;;;;;;;;;;13.40;99.90;;;;;;5037903;28;19921;-67
2023/08/08 03:07:29;;;;;;;;;;;13.40;99.90;;;;;;5037577;28;20388;-67
2023/08/08 03:09:56;;;;;;;;;;;13.40;99.90;;;;;;5037917;28;19925;-66
2023/08/08 03:12:24;;;;;;;;;;;13.40;99.90;;;;;;5037430;28;19928;-67
2023/08/08 03:14:52;;;;;;;;;;;13.30;99.90;;;;;;5017890;28;19925;-67
2023/08/08 03:17:20;;;;;;;;;;;13.30;99.90;;;;;;5028310;28;19921;-67
2023/08/08 03:19:48;;;;;;;;;;;13.30;99.90;;;;;;5037653;28;19928;-67
2023/08/08 03:22:16;;;;;;;;;;;13.30;99.90;;;;;;5037583;28;19921;-67
2023/08/08 03:24:45;;;;;;;;;;;13.30;99.90;;;;;;5037621;28;19967;-67
2023/08/08 03:27:13;;;;;;;;;;;13.30;99.90;;;;;;5037508;28;19921;-67
2023/08/08 03:29:40;;;;;;;;;;;13.20;99.90;;;;;;5037459;28;20379;-67
2023/08/08 03:32:08;;;;;;;;;;;13.10;99.90;;;;;;5037202;28;19970;-67
2023/08/08 03:34:36;;;;;;;;;;;13.20;99.90;;;;;;5037388;28;19921;-67
2023/08/08 03:37:04;;;;;;;;;;;13.10;99.90;;;;;;5037554;28;19933;-66
2023/08/08 03:39:33;;;;;;;;;;;13.10;99.90;;;;;;5021963;28;20387;-67
2023/08/08 03:42:02;;;;;;;;;;;13.10;99.90;;;;;;5037268;28;19921;-67
2023/08/08 03:44:29;;;;;;;;;;;13.10;99.90;;;;;;5020480;28;20453;-67
2023/08/08 03:46:57;;;;;;;;;;;13.10;99.90;;;;;;5024636;28;19921;-67
2023/08/08 03:49:44;;;;;;;;;;;13.20;99.90;;;;;;5037338;28;19967;-67
2023/08/08 03:52:12;;;;;;;;;;;13.20;99.90;;;;;;5035069;28;19925;-69
2023/08/08 03:54:40;;;;;;;;;;;13.10;99.90;;;;;;5034283;28;19921;-69
2023/08/08 03:57:09;;;;;;;;;;;13.10;99.90;;;;;;5034130;28;20454;-69
2023/08/08 03:59:37;;;;;;;;;;;13.20;99.90;;;;;;5033892;28;19920;-69
2023/08/08 04:02:05;;;;;;;;;;;13.10;99.90;;;;;;5033992;28;19921;-69
2023/08/08 04:04:33;;;;;;;;;;;13.10;99.90;;;;;;5034039;28;19925;-69
2023/08/08 04:07:01;;;;;;;;;;;13.10;99.90;;;;;;5034115;28;19921;-69
2023/08/08 04:09:29;;;;;;;;;;;13.10;99.90;;;;;;5033747;28;19928;-69
2023/08/08 04:11:57;;;;;;;;;;;13.00;99.90;;;;;;5033697;28;19921;-69
2023/08/08 04:14:27;;;;;;;;;;;13.00;99.90;;;;;;5017510;28;19921;-69
2023/08/08 04:16:54;;;;;;;;;;;13.00;99.90;;;;;;5020193;28;19921;-69
2023/08/08 04:19:23;;;;;;;;;;;13.00;99.90;;;;;;5033469;28;20019;-69
2023/08/08 04:21:51;;;;;;;;;;;13.00;99.90;;;;;;5033581;28;19936;-69
2023/08/08 04:24:18;;;;;;;;;;;13.00;99.90;;;;;;5033618;28;19932;-69
2023/08/08 04:26:46;;;;;;;;;;;12.90;99.90;;;;;;5019477;28;19928;-69
2023/08/08 04:29:14;;;;;;;;;;;12.90;99.90;;;;;;5013449;28;19921;-69
2023/08/08 04:31:43;;;;;;;;;;;12.90;99.90;;;;;;5013587;28;19926;-69
2023/08/08 04:34:11;;;;;;;;;;;12.90;99.90;;;;;;5013515;28;19976;-68
2023/08/08 04:36:39;;;;;;;;;;;12.90;99.90;;;;;;5013651;28;20386;-68
2023/08/08 04:39:06;;;;;;;;;;;12.90;99.90;;;;;;5013495;28;20292;-69
2023/08/08 04:41:34;;;;;;;;;;;12.90;99.90;;;;;;5013235;28;19930;-69
2023/08/08 04:44:02;;;;;;;;;;;12.90;99.90;;;;;;5013521;28;20366;-69
2023/08/08 04:46:30;;;;;;;;;;;12.90;99.90;;;;;;5013273;28;19929;-69
2023/08/08 04:48:59;;;;;;;;;;;12.90;99.90;;;;;;5013208;28;19953;-69
2023/08/08 04:51:27;;;;;;;;;;;12.80;99.90;;;;;;5013134;28;19921;-69
2023/08/08 04:53:55;;;;;;;;;;;12.80;99.90;;;;;;5012991;28;19932;-69
2023/08/08 04:56:22;;;;;;;;;;;12.80;99.90;;;;;;5013025;28;19921;-69
2023/08/08 04:58:50;;;;;;;;;;;12.90;99.90;;;;;;5013054;28;20407;-69
2023/08/08 05:01:20;;;;;;;;;;;12.90;99.90;;;;;;5030131;28;19935;-69
2023/08/08 05:03:48;;;;;;;;;;;12.90;99.90;;;;;;5032332;28;19971;-69
2023/08/08 05:06:17;;;;;;;;;;;12.90;99.90;;;;;;5032675;28;20380;-68
2023/08/08 05:08:45;;;;;;;;;;;12.90;99.90;;;;;;5032709;28;19925;-69
2023/08/08 05:11:13;;;;;;;;;;;12.90;99.90;;;;;;5032779;28;20494;-68
2023/08/08 05:13:40;;;;;;;;;;;12.90;99.90;;;;;;5017263;28;20261;-69
2023/08/08 05:16:08;;;;;;;;;;;13.00;99.90;;;;;;5032794;28;20300;-68
2023/08/08 05:18:36;;;;;;;;;;;13.00;99.90;;;;;;5032311;28;19928;-69
2023/08/08 05:21:04;;;;;;;;;;;13.00;99.90;;;;;;5032413;28;19929;-68
2023/08/08 05:23:33;;;;;;;;;;;13.10;99.90;;;;;;5032342;28;19975;-69
2023/08/08 05:26:00;;;;;;;;;;;13.10;99.90;;;;;;5026553;28;19921;-69
2023/08/08 05:28:28;;;;;;;;;;;13.10;99.90;;;;;;5012405;28;19922;-69
2023/08/08 05:30:57;;;;;;;;;;;13.10;99.90;;;;;;5026451;28;19921;-69
2023/08/08 05:33:24;;;;;;;;;;;13.20;99.90;;;;;;5032015;28;19928;-69
2023/08/08 05:35:52;;;;;;;;;;;13.20;99.90;;;;;;5032444;28;20284;-69
2023/08/08 05:38:20;;;;;;;;;;;13.30;99.90;;;;;;5032140;28;19971;-69
2023/08/08 05:40:49;;;;;;;;;;;13.30;99.90;;;;;;5032242;28;19921;-69
2023/08/08 05:43:18;;;;;;;;;;;13.30;99.90;;;;;;5031886;28;19921;-69
2023/08/08 05:45:46;;;;;;;;;;;13.40;99.90;;;;;;5032130;28;19921;-69
2023/08/08 05:48:13;;;;;;;;;;;13.40;99.90;;;;;;5032232;28;19928;-69
2023/08/08 05:50:42;;;;;;;;;;;13.40;99.90;;;;;;5031932;28;20016;-69
2023/08/08 05:53:09;;;;;;;;;;;13.50;99.90;;;;;;5031621;28;20311;-69
2023/08/08 05:55:37;;;;;;;;;;;13.60;99.90;;;;;;5031892;28;19980;-69
2023/08/08 05:58:06;;;;;;;;;;;13.60;99.90;;;;;;5023562;28;20353;-69
2023/08/08 06:00:34;;;;;;;;;;;13.60;99.90;;;;;;5023379;28;19921;-69
2023/08/08 06:03:02;;;;;;;;;;;13.70;99.90;;;;;;5031673;28;19933;-69
2023/08/08 06:05:30;;;;;;;;;;;13.70;99.90;;;;;;5031716;28;20280;-69
2023/08/08 06:07:58;;;;;;;;;;;13.80;99.90;;;;;;5031692;28;20311;-69
2023/08/08 06:10:26;;;;;;;;;;;13.80;99.90;;;;;;5031749;28;19921;-69
2023/08/08 06:12:53;;;;;;;;;;;13.90;99.90;;;;;;5031476;28;20442;-69
2023/08/08 06:15:23;;;;;;;;;;;14.00;99.90;;;;;;5030777;28;19921;-69
2023/08/08 06:17:50;;;;;;;;;;;14.10;99.90;;;;;;5031510;28;19928;-68
2023/08/08 06:20:18;;;;;;;;;;;14.10;99.90;;;;;;5031998;28;20008;-69
2023/08/08 06:22:46;;;;;;;;;;;14.20;99.90;;;;;;5031636;28;19921;-69
2023/08/08 06:25:14;;;;;;;;;;;14.30;99.90;;;;;;5031647;28;19921;-69
2023/08/08 06:27:42;;;;;;;;;;;14.50;99.90;;;;;;4993746;28;19983;-67
2023/08/08 06:30:10;;;;;;;;;;;14.60;99.90;;;;;;5026760;28;19921;-67
2023/08/08 06:32:39;;;;;;;;;;;14.80;99.90;;;;;;5031006;28;19967;-67
2023/08/08 06:35:08;;;;;;;;;;;14.80;99.90;;;;;;5031557;28;19927;-68
2023/08/08 06:37:37;;;;;;;;;;;14.90;99.90;;;;;;5031104;28;19921;-67
2023/08/08 06:40:07;;;;;;;;;;;14.90;99.90;;;;;;5031547;28;20511;-67
2023/08/08 06:42:34;;;;;;;;;;;15.10;99.90;;;;;;5031017;28;19921;-67
2023/08/08 06:45:02;;;;;;;;;;;15.20;99.90;;;;;;5031373;28;19920;-67
2023/08/08 06:47:30;;;;;;;;;;;15.30;99.90;;;;;;5031065;28;19971;-67
2023/08/08 06:49:59;;;;;;;;;;;15.30;99.90;;;;;;5031457;28;20250;-67
2023/08/08 06:52:27;;;;;;;;;;;15.40;99.90;;;;;;5030704;28;20295;-67
2023/08/08 06:54:55;;;;;;;;;;;15.50;99.90;;;;;;5031222;28;20391;-67
2023/08/08 06:57:22;;;;;;;;;;;15.50;99.90;;;;;;5014100;28;19975;-66
2023/08/08 06:59:50;;;;;;;;;;;15.60;99.90;;;;;;5015514;28;20411;-67
2023/08/08 07:02:19;;;;;;;;;;;15.70;99.90;;;;;;5031001;28;20273;-66
2023/08/08 07:04:46;;;;;;;;;;;15.80;99.90;;;;;;5030949;28;19925;-67
2023/08/08 07:07:16;;;;;;;;;;;16.00;99.90;;;;;;5031105;28;19921;-67
2023/08/08 07:09:44;;;;;;;;;;;16.10;99.90;;;;;;5030809;28;19921;-67
2023/08/08 07:12:12;;;;;;;;;;;16.20;99.90;;;;;;5030979;28;19929;-67
2023/08/08 07:14:39;;;;;;;;;;;16.30;99.90;;;;;;5030907;28;19928;-67
2023/08/08 07:17:07;;;;;;;;;;;16.50;99.90;;;;;;5031128;28;20376;-67
2023/08/08 07:19:36;;;;;;;;;;;16.60;99.90;;;;;;5030638;28;19921;-67
2023/08/08 07:22:04;;;;;;;;;;;16.70;99.90;;;;;;5030868;28;20003;-67
2023/08/08 07:24:33;;;;;;;;;;;16.80;99.90;;;;;;5030911;28;19928;-67
2023/08/08 07:27:00;;;;;;;;;;;16.90;99.90;;;;;;5019195;28;19921;-67
2023/08/08 07:29:28;;;;;;;;;;;17.00;99.90;;;;;;5023214;28;19921;-67
2023/08/08 07:31:56;;;;;;;;;;;17.20;99.90;;;;;;5034497;28;19921;-67
2023/08/08 07:34:24;;;;;;;;;;;17.30;99.90;;;;;;5034710;28;19924;-67
2023/08/08 07:36:52;;;;;;;;;;;17.50;99.90;;;;;;5018594;28;20015;-67
2023/08/08 07:39:20;;;;;;;;;;;17.60;99.90;;;;;;5034779;28;19920;-67
2023/08/08 07:41:49;;;;;;;;;;;17.80;99.90;;;;;;5034389;28;19928;-67
2023/08/08 07:44:17;;;;;;;;;;;17.90;99.90;;;;;;5034460;28;19921;-69
2023/08/08 07:46:45;;;;;;;;;;;18.10;99.90;;;;;;5034224;28;20342;-70
2023/08/08 07:49:12;;;;;;;;;;;18.10;99.90;;;;;;5034169;28;19964;-70
2023/08/08 07:51:40;;;;;;;;;;;18.10;99.90;;;;;;5034405;28;19925;-70
2023/08/08 07:54:08;;;;;;;;;;;18.20;99.90;;;;;;5033927;28;19964;-69
2023/08/08 07:56:36;;;;;;;;;;;18.30;99.90;;;;;;5023239;28;19922;-69
2023/08/08 07:59:06;;;;;;;;;;;18.30;99.90;;;;;;5018986;28;20346;-70
2023/08/08 08:01:33;;;;;;;;;;;18.40;99.90;;;;;;5034028;28;19943;-70
2023/08/08 08:04:02;;;;;;;;;;;18.50;99.90;;;;;;5033915;28;20011;-70
2023/08/08 08:06:30;;;;;;;;;;;18.60;99.90;;;;;;5033969;28;19921;-70
2023/08/08 08:08:58;;;;;;;;;;;18.80;99.90;;;;;;5033939;28;19921;-70
2023/08/08 08:11:26;;;;;;;;;;;18.80;99.90;;;;;;5034129;28;19921;-70
2023/08/08 08:13:54;;;;;;;;;;;18.90;99.90;;;;;;5033385;28;19924;-70
2023/08/08 08:16:23;;;;;;;;;;;18.90;99.90;;;;;;5033968;28;19928;-70
2023/08/08 08:18:51;;;;;;;;;;;19.10;99.90;;;;;;5033551;28;19928;-69
2023/08/08 08:21:19;;;;;;;;;;;19.10;99.90;;;;;;5033915;28;19947;-70
2023/08/08 08:23:47;;;;;;;;;;;19.10;99.90;;;;;;5033436;28;19925;-70
2023/08/08 08:26:15;;;;;;;;;;;19.10;99.90;;;;;;5025840;28;19921;-69
2023/08/08 08:28:42;;;;;;;;;;;19.00;99.90;;;;;;5015173;28;20003;-69
2023/08/08 08:31:10;;;;;;;;;;;19.00;99.90;;;;;;5033851;28;19921;-69
2023/08/08 08:33:39;;;;;;;;;;;19.20;99.90;;;;;;5033328;28;19927;-70
2023/08/08 08:36:07;;;;;;;;;;;19.10;99.90;;;;;;5033634;28;19921;-69
2023/08/08 08:38:35;;;;;;;;;;;19.20;99.90;;;;;;5032339;28;19921;-69
2023/08/08 08:41:03;;;;;;;;;;;19.30;99.90;;;;;;5033436;28;19929;-69
2023/08/08 08:43:31;;;;;;;;;;;19.30;99.90;;;;;;5033176;28;19921;-67
2023/08/08 08:46:00;;;;;;;;;;;19.30;99.90;;;;;;5017398;28;19926;-67
2023/08/08 08:48:31;;;;;;;;;;;19.20;99.90;;;;;;5033219;28;19920;-67
2023/08/08 08:51:00;;;;;;;;;;;19.40;99.90;;;;;;5017246;28;19921;-67
2023/08/08 08:53:28;;;;;;;;;;;19.60;99.90;;;;;;5032661;28;19921;-67
2023/08/08 08:55:56;;;;;;;;;;;19.50;99.90;;;;;;5027761;28;20008;-67
2023/08/08 08:58:25;;;;;;;;;;;19.50;99.90;;;;;;5013011;28;19921;-68
2023/08/08 09:00:53;;;;;;;;;;;19.30;99.90;;;;;;5032108;28;19929;-68
2023/08/08 09:03:21;;;;;;;;;;;19.20;99.90;;;;;;5032653;28;20007;-68
2023/08/08 09:05:49;;;;;;;;;;;19.30;99.90;;;;;;5032824;28;19927;-67
2023/08/08 09:08:18;;;;;;;;;;;19.50;99.90;;;;;;5032785;28;19929;-67
2023/08/08 09:10:46;;;;;;;;;;;19.80;99.90;;;;;;5033014;28;19921;-67
2023/08/08 09:13:14;;;;;;;;;;;20.00;99.90;;;;;;5032497;28;19925;-68
2023/08/08 09:15:42;;;;;;;;;;;20.10;99.90;;;;;;5032554;28;19928;-67
2023/08/08 09:18:09;;;;;;;;;;;20.20;99.90;;;;;;5032673;28;19921;-67
2023/08/08 09:20:37;;;;;;;;;;;20.50;99.90;;;;;;5032441;28;19924;-68
2023/08/08 09:23:05;;;;;;;;;;;20.80;99.90;;;;;;5032319;28;19964;-68
2023/08/08 09:25:34;;;;;;;;;;;21.20;99.90;;;;;;5030380;28;19928;-68
2023/08/08 09:28:02;;;;;;;;;;;21.10;99.90;;;;;;5004641;28;19921;-68
2023/08/08 09:30:30;;;;;;;;;;;20.90;99.90;;;;;;5028245;28;20298;-68
2023/08/08 09:33:01;;;;;;;;;;;21.00;99.90;;;;;;5031935;28;19921;-67
2023/08/08 09:35:29;;;;;;;;;;;21.10;99.90;;;;;;5032436;28;20268;-67
2023/08/08 09:37:57;;;;;;;;;;;21.10;99.90;;;;;;5031932;28;19974;-67
2023/08/08 09:40:24;;;;;;;;;;;21.40;99.90;;;;;;5032192;28;20299;-68
2023/08/08 09:42:54;;;;;;;;;;;21.80;99.90;;;;;;5032030;28;19974;-67
2023/08/08 09:45:22;;;;;;;;;;;22.00;99.90;;;;;;5032165;28;19921;-68
2023/08/08 09:47:51;;;;;;;;;;;22.10;99.90;;;;;;5031892;28;19925;-68
2023/08/08 09:50:20;;;;;;;;;;;22.10;99.90;;;;;;5031869;28;20012;-68
2023/08/08 09:52:48;;;;;;;;;;;22.10;99.90;;;;;;5032125;28;20023;-68
2023/08/08 09:55:16;;;;;;;;;;;21.90;99.90;;;;;;5032468;28;19941;-68
2023/08/08 09:57:44;;;;;;;;;;;22.20;99.90;;;;;;5009170;28;19925;-68
2023/08/08 10:00:16;;;;;;;;;;;22.20;99.90;;;;;;5024581;28;20445;-68
2023/08/08 10:02:45;;;;;;;;;;;22.20;99.90;;;;;;5031803;28;19927;-68
2023/08/08 10:05:13;;;;;;;;;;;22.10;99.90;;;;;;5032013;28;20193;-68
2023/08/08 10:07:41;;;;;;;;;;;22.10;99.90;;;;;;5031460;28;19940;-68
2023/08/08 10:10:10;;;;;;;;;;;22.10;99.90;;;;;;5031736;28;19921;-69
2023/08/08 10:12:39;;;;;;;;;;;22.40;99.90;;;;;;5031649;28;20281;-68
2023/08/08 10:15:08;;;;;;;;;;;22.50;99.90;;;;;;5031942;28;19991;-68
2023/08/08 10:17:38;;;;;;;;;;;22.50;99.90;;;;;;5031789;28;19925;-68
2023/08/08 10:20:11;;;;;;;;;;;22.60;99.90;;;;;;5031568;28;19921;-68
2023/08/08 10:22:42;;;;;;;;;;;22.60;99.90;;;;;;5031674;28;20342;-68
2023/08/08 10:25:18;;;;;;;;;;;22.80;99.90;;;;;;5016384;28;19928;-67
2023/08/08 10:27:45;;;;;;;;;;;22.90;99.90;;;;;;5013389;28;19925;-68
2023/08/08 10:30:14;;;;;;;;;;;23.00;99.90;;;;;;5011651;28;19921;-68
2023/08/08 10:32:44;;;;;;;;;;;23.00;99.90;;;;;;5011530;28;19928;-68
2023/08/08 10:35:12;;;;;;;;;;;23.00;99.90;;;;;;5011653;28;19926;-68
2023/08/08 10:37:40;;;;;;;;;;;22.80;99.90;;;;;;5011844;28;19944;-68
2023/08/08 10:40:11;;;;;;;;;;;22.50;99.90;;;;;;5011519;28;20599;-68
2023/08/08 10:42:42;;;;;;;;;;;22.50;99.90;;;;;;5011668;28;20427;-68
2023/08/08 10:45:11;;;;;;;;;;;22.40;99.90;;;;;;5011734;28;19921;-68
2023/08/08 10:47:38;;;;;;;;;;;22.30;99.90;;;;;;5011304;28;19925;-68
2023/08/08 10:50:11;;;;;;;;;;;22.20;99.90;;;;;;5011255;28;19933;-68
2023/08/08 10:52:39;;;;;;;;;;;22.20;99.90;;;;;;5011392;28;19922;-68
2023/08/08 10:55:10;;;;;;;;;;;22.10;99.90;;;;;;5011371;28;20402;-68
2023/08/08 10:57:38;;;;;;;;;;;22.30;99.90;;;;;;5011274;28;19925;-68
2023/08/08 11:00:19;;;;;;;;;;;22.30;99.90;;;;;;5013973;28;19921;-68
2023/08/08 11:02:47;;;;;;;;;;;22.30;99.90;;;;;;5034873;28;19928;-68
2023/08/08 11:05:16;;;;;;;;;;;22.20;99.90;;;;;;5035262;28;19971;-68
2023/08/08 11:07:44;;;;;;;;;;;22.10;99.90;;;;;;5035007;28;19927;-69
2023/08/08 11:10:12;;;;;;;;;;;22.00;99.90;;;;;;5019032;28;19970;-68
2023/08/08 11:12:39;;;;;;;;;;;21.90;99.90;;;;;;5035496;28;19928;-68
2023/08/08 11:15:08;;;;;;;;;;;21.80;99.90;;;;;;5035129;28;19921;-68
2023/08/08 11:17:37;;;;;;;;;;;21.70;99.90;;;;;;5034837;28;19929;-68
2023/08/08 11:20:06;;;;;;;;;;;21.70;99.90;;;;;;5034423;28;19944;-68
2023/08/08 11:22:35;;;;;;;;;;;21.70;99.90;;;;;;5035013;28;19921;-68
2023/08/08 11:25:03;;;;;;;;;;;21.40;99.90;;;;;;5034605;28;20442;-68
2023/08/08 11:27:30;;;;;;;;;;;21.50;99.90;;;;;;5026793;28;19922;-68
2023/08/08 11:30:02;;;;;;;;;;;21.70;99.90;;;;;;5016670;28;19921;-68
2023/08/08 11:32:30;;;;;;;;;;;21.70;99.90;;;;;;5034835;28;19927;-68
2023/08/08 11:34:58;;;;;;;;;;;22.00;99.90;;;;;;5034607;28;19921;-68
2023/08/08 11:37:25;;;;;;;;;;;22.00;99.90;;;;;;5034694;28;19971;-68
2023/08/08 11:39:55;;;;;;;;;;;22.10;99.90;;;;;;5034177;28;20442;-68
2023/08/08 11:42:22;;;;;;;;;;;22.00;99.90;;;;;;5034745;28;19920;-69
2023/08/08 11:44:51;;;;;;;;;;;22.10;99.90;;;;;;5034267;28;19948;-68
2023/08/08 11:47:24;;;;;;;;;;;22.10;99.90;;;;;;5034573;28;19928;-69
2023/08/08 11:49:53;;;;;;;;;;;22.30;99.90;;;;;;5034867;28;19956;-68
2023/08/08 11:52:21;;;;;;;;;;;22.30;99.90;;;;;;5034071;28;19925;-68
2023/08/08 11:54:51;;;;;;;;;;;22.40;99.90;;;;;;5034445;28;19921;-68
2023/08/08 11:57:20;;;;;;;;;;;22.60;99.90;;;;;;5012914;28;19921;-68
2023/08/08 11:59:49;;;;;;;;;;;22.70;99.90;;;;;;5014307;28;20274;-68
2023/08/08 12:02:17;;;;;;;;;;;22.80;99.90;;;;;;5018258;28;19921;-68
2023/08/08 12:04:45;;;;;;;;;;;22.80;99.90;;;;;;5034171;28;19971;-68
2023/08/08 12:07:13;;;;;;;;;;;22.70;99.90;;;;;;5033935;28;20311;-69
2023/08/08 12:09:41;;;;;;;;;;;22.60;99.90;;;;;;5033748;28;20016;-68
2023/08/08 12:12:09;;;;;;;;;;;22.60;99.50;;;;;;5032938;28;19920;-68
2023/08/08 12:14:39;;;;;;;;;;;22.80;99.40;;;;;;5033635;28;19921;-68
2023/08/08 12:17:23;;;;;;;;;;;22.90;99.00;;;;;;5034014;28;19971;-68
2023/08/08 12:19:51;;;;;;;;;;;22.90;99.60;;;;;;5033852;28;19932;-68
2023/08/08 12:22:19;;;;;;;;;;;23.00;99.90;;;;;;5034017;28;19928;-68
2023/08/08 12:24:46;;;;;;;;;;;22.80;98.90;;;;;;5033804;28;19974;-68
2023/08/08 12:27:14;;;;;;;;;;;22.70;99.90;;;;;;5028006;28;20045;-68
2023/08/08 12:29:44;;;;;;;;;;;23.10;99.90;;;;;;5013511;28;19976;-68
2023/08/08 12:32:12;;;;;;;;;;;23.30;99.90;;;;;;5032789;28;19920;-68
2023/08/08 12:34:39;;;;;;;;;;;23.30;99.60;;;;;;5033789;28;19921;-68
2023/08/08 12:37:07;;;;;;;;;;;23.50;99.90;;;;;;5033406;28;19921;-68
2023/08/08 12:39:35;;;;;;;;;;;23.60;99.60;;;;;;5033229;28;19987;-68
2023/08/08 12:42:03;;;;;;;;;;;23.40;99.30;;;;;;5033171;28;20430;-68
2023/08/08 12:44:30;;;;;;;;;;;23.40;99.00;;;;;;5033460;28;19921;-68
2023/08/08 12:47:00;;;;;;;;;;;23.20;99.10;;;;;;5033250;28;20395;-69
2023/08/08 12:49:28;;;;;;;;;;;22.80;99.50;;;;;;5033035;28;20280;-68
2023/08/08 12:51:56;;;;;;;;;;;22.70;99.90;;;;;;5032140;28;20557;-68
2023/08/08 12:54:23;;;;;;;;;;;22.70;99.60;;;;;;5033373;28;19920;-68
2023/08/08 12:56:51;;;;;;;;;;;22.80;98.70;;;;;;5031154;28;19979;-68
2023/08/08 12:59:19;;;;;;;;;;;23.00;99.00;;;;;;5013007;28;19921;-68
2023/08/08 13:01:47;;;;;;;;;;;22.90;98.00;;;;;;5028395;28;20288;-68
2023/08/08 13:04:16;;;;;;;;;;;22.80;98.20;;;;;;5032736;28;20331;-68
2023/08/08 13:06:46;;;;;;;;;;;22.90;98.20;;;;;;5033045;28;19987;-68
2023/08/08 13:09:15;;;;;;;;;;;22.90;98.40;;;;;;5032503;28;19920;-68
2023/08/08 13:11:43;;;;;;;;;;;22.90;97.10;;;;;;5032659;28;19920;-68
2023/08/08 13:14:11;;;;;;;;;;;23.20;97.50;;;;;;5032757;28;19921;-68
2023/08/08 13:16:39;;;;;;;;;;;23.50;96.80;;;;;;5032856;28;20380;-68
2023/08/08 13:19:07;;;;;;;;;;;23.40;96.60;;;;;;5032970;28;19925;-68
2023/08/08 13:21:36;;;;;;;;;;;23.30;97.40;;;;;;5032637;28;19925;-68
2023/08/08 13:24:04;;;;;;;;;;;23.10;97.40;;;;;;5032045;28;19975;-68
2023/08/08 13:26:32;;;;;;;;;;;23.10;98.60;;;;;;5032659;28;19925;-68
2023/08/08 13:28:59;;;;;;;;;;;23.00;98.50;;;;;;5009210;28;20351;-68
2023/08/08 13:31:27;;;;;;;;;;;22.70;98.70;;;;;;5024673;28;19921;-67
2023/08/08 13:33:55;;;;;;;;;;;22.70;99.20;;;;;;5032379;28;19921;-68
2023/08/08 13:36:23;;;;;;;;;;;22.60;98.80;;;;;;5032122;28;19925;-68
2023/08/08 13:38:52;;;;;;;;;;;22.60;98.30;;;;;;5032088;28;19925;-68
2023/08/08 13:41:22;;;;;;;;;;;22.40;99.00;;;;;;5031969;28;19928;-68
2023/08/08 13:43:49;;;;;;;;;;;22.30;98.60;;;;;;5032214;28;20445;-68
2023/08/08 13:46:17;;;;;;;;;;;22.40;98.70;;;;;;5032047;28;19932;-68
2023/08/08 13:48:45;;;;;;;;;;;22.30;97.90;;;;;;5031804;28;19928;-68
2023/08/08 13:51:13;;;;;;;;;;;22.30;97.90;;;;;;5031961;28;20166;-68
2023/08/08 13:53:40;;;;;;;;;;;22.30;97.80;;;;;;5031843;28;19928;-68
2023/08/08 13:56:10;;;;;;;;;;;22.20;98.50;;;;;;5031893;28;19921;-68
2023/08/08 13:58:38;;;;;;;;;;;22.10;98.50;;;;;;5014741;28;19928;-68
2023/08/08 14:01:06;;;;;;;;;;;21.80;98.60;;;;;;5020473;28;20338;-68
2023/08/08 14:03:34;;;;;;;;;;;21.80;98.50;;;;;;5031790;28;20339;-68
2023/08/08 14:06:02;;;;;;;;;;;21.90;98.60;;;;;;5031599;28;19927;-67
2023/08/08 14:08:30;;;;;;;;;;;22.00;98.90;;;;;;5031688;28;19944;-68
2023/08/08 14:10:57;;;;;;;;;;;22.40;98.40;;;;;;5031721;28;20327;-68
2023/08/08 14:13:26;;;;;;;;;;;22.60;98.00;;;;;;5031732;28;19921;-68
2023/08/08 14:15:54;;;;;;;;;;;22.60;98.70;;;;;;5031634;28;19921;-68
2023/08/08 14:18:22;;;;;;;;;;;22.30;97.70;;;;;;5031410;28;19920;-68
2023/08/08 14:20:50;;;;;;;;;;;22.10;98.50;;;;;;5031494;28;20437;-68
2023/08/08 14:23:18;;;;;;;;;;;22.00;98.50;;;;;;5031376;28;19971;-68